sensor_id;sensor_type;location;lat;lon;timestamp;P1;durP1;ratioP1;P2;durP2;ratioP2
14892;SDS011;7538;53.626;9.906;2023-05-03T00:02:06;6.60;;;4.43;;
14892;SDS011;7538;53.626;9.906;2023-05-03T00:04:34;6.50;;;4.13;;
14892;SDS011;7538;53.626;9.906;2023-05-03T00:07:01;6.47;;;3.50;;
14892;SDS011;7538;53.626;9.906;2023-05-03T00:09:28;6.13;;;4.10;;
14892;SDS011;7538;53.626;9.906;2023-05-03T00:11:55;6.90;;;3.90;;
14892;SDS011;7538;53.626;9.906;2023-05-03T00:14:22;4.63;;;3.73;;
14892;SDS011;7538;53.626;9.906;2023-05-03T00:16:50;5.70;;;3.77;;
14892;SDS011;7538;53.626;9.906;2023-05-03T00:19:17;7.73;;;3.57;;
14892;SDS011;7538;53.626;9.906;2023-05-03T00:21:44;6.40;;;3.27;;
14892;SDS011;7538;53.626;9.906;2023-05-03T00:24:11;9.07;;;4.27;;
14892;SDS011;7538;53.626;9.906;2023-05-03T00:26:38;6.73;;;4.17;;
14892;SDS011;7538;53.626;9.906;2023-05-03T00:29:05;5.57;;;3.67;;
14892;SDS011;7538;53.626;9.906;2023-05-03T00:31:31;6.53;;;3.50;;
14892;SDS011;7538;53.626;9.906;2023-05-03T00:34:00;5.77;;;4.23;;
14892;SDS011;7538;53.626;9.906;2023-05-03T00:36:26;6.67;;;3.60;;
14892;SDS011;7538;53.626;9.906;2023-05-03T00:38:53;6.27;;;3.70;;
14892;SDS011;7538;53.626;9.906;2023-05-03T00:41:20;6.63;;;4.20;;
14892;SDS011;7538;53.626;9.906;2023-05-03T00:43:48;8.43;;;3.83;;
14892;SDS011;7538;53.626;9.906;2023-05-03T00:46:15;6.53;;;3.60;;
14892;SDS011;7538;53.626;9.906;2023-05-03T00:48:42;5.87;;;3.77;;
14892;SDS011;7538;53.626;9.906;2023-05-03T00:51:10;5.97;;;3.60;;
14892;SDS011;7538;53.626;9.906;2023-05-03T00:53:39;6.17;;;3.83;;
14892;SDS011;7538;53.626;9.906;2023-05-03T00:56:06;6.67;;;3.90;;
14892;SDS011;7538;53.626;9.906;2023-05-03T00:58:35;10.50;;;4.67;;
14892;SDS011;7538;53.626;9.906;2023-05-03T01:01:04;6.63;;;4.57;;
14892;SDS011;7538;53.626;9.906;2023-05-03T01:03:31;8.53;;;4.70;;
14892;SDS011;7538;53.626;9.906;2023-05-03T01:06:02;7.33;;;4.43;;
14892;SDS011;7538;53.626;9.906;2023-05-03T01:08:39;4.90;;;3.30;;
14892;SDS011;7538;53.626;9.906;2023-05-03T01:11:11;7.00;;;3.33;;
14892;SDS011;7538;53.626;9.906;2023-05-03T01:13:46;5.60;;;3.90;;
14892;SDS011;7538;53.626;9.906;2023-05-03T01:16:20;7.07;;;3.70;;
14892;SDS011;7538;53.626;9.906;2023-05-03T01:18:52;9.20;;;3.63;;
14892;SDS011;7538;53.626;9.906;2023-05-03T01:21:22;10.67;;;4.63;;
14892;SDS011;7538;53.626;9.906;2023-05-03T01:23:53;7.00;;;4.07;;
14892;SDS011;7538;53.626;9.906;2023-05-03T01:26:26;6.90;;;4.07;;
14892;SDS011;7538;53.626;9.906;2023-05-03T01:28:54;7.17;;;3.60;;
14892;SDS011;7538;53.626;9.906;2023-05-03T01:31:22;6.07;;;3.80;;
14892;SDS011;7538;53.626;9.906;2023-05-03T01:34:00;6.10;;;3.70;;
14892;SDS011;7538;53.626;9.906;2023-05-03T01:36:36;6.87;;;3.57;;
14892;SDS011;7538;53.626;9.906;2023-05-03T01:39:09;7.17;;;3.50;;
14892;SDS011;7538;53.626;9.906;2023-05-03T01:41:42;5.20;;;3.67;;
14892;SDS011;7538;53.626;9.906;2023-05-03T01:44:11;6.40;;;3.27;;
14892;SDS011;7538;53.626;9.906;2023-05-03T01:46:42;5.27;;;3.40;;
14892;SDS011;7538;53.626;9.906;2023-05-03T01:49:09;7.40;;;4.30;;
14892;SDS011;7538;53.626;9.906;2023-05-03T01:51:36;6.27;;;3.23;;
14892;SDS011;7538;53.626;9.906;2023-05-03T01:54:03;4.93;;;3.30;;
14892;SDS011;7538;53.626;9.906;2023-05-03T01:56:31;3.17;;;2.87;;
14892;SDS011;7538;53.626;9.906;2023-05-03T01:59:01;5.40;;;3.37;;
14892;SDS011;7538;53.626;9.906;2023-05-03T02:01:27;6.17;;;3.30;;
14892;SDS011;7538;53.626;9.906;2023-05-03T02:03:54;5.10;;;3.10;;
14892;SDS011;7538;53.626;9.906;2023-05-03T02:06:22;3.80;;;2.50;;
14892;SDS011;7538;53.626;9.906;2023-05-03T02:08:49;4.40;;;3.00;;
14892;SDS011;7538;53.626;9.906;2023-05-03T02:11:16;5.83;;;3.00;;
14892;SDS011;7538;53.626;9.906;2023-05-03T02:13:43;5.57;;;2.70;;
14892;SDS011;7538;53.626;9.906;2023-05-03T02:16:12;4.07;;;3.00;;
14892;SDS011;7538;53.626;9.906;2023-05-03T02:18:39;5.80;;;3.20;;
14892;SDS011;7538;53.626;9.906;2023-05-03T02:21:05;4.37;;;3.13;;
14892;SDS011;7538;53.626;9.906;2023-05-03T02:23:33;3.97;;;2.20;;
14892;SDS011;7538;53.626;9.906;2023-05-03T02:26:00;5.67;;;3.30;;
14892;SDS011;7538;53.626;9.906;2023-05-03T02:28:27;4.67;;;2.87;;
14892;SDS011;7538;53.626;9.906;2023-05-03T02:30:54;5.70;;;3.00;;
14892;SDS011;7538;53.626;9.906;2023-05-03T02:33:22;4.07;;;2.50;;
14892;SDS011;7538;53.626;9.906;2023-05-03T02:35:49;5.13;;;2.87;;
14892;SDS011;7538;53.626;9.906;2023-05-03T02:38:16;8.20;;;2.60;;
14892;SDS011;7538;53.626;9.906;2023-05-03T02:40:43;3.67;;;2.77;;
14892;SDS011;7538;53.626;9.906;2023-05-03T02:43:09;3.60;;;2.87;;
14892;SDS011;7538;53.626;9.906;2023-05-03T02:45:36;4.27;;;2.87;;
14892;SDS011;7538;53.626;9.906;2023-05-03T02:48:03;4.47;;;2.93;;
14892;SDS011;7538;53.626;9.906;2023-05-03T02:50:32;5.03;;;2.60;;
14892;SDS011;7538;53.626;9.906;2023-05-03T02:52:59;5.47;;;2.77;;
14892;SDS011;7538;53.626;9.906;2023-05-03T02:55:26;3.63;;;3.03;;
14892;SDS011;7538;53.626;9.906;2023-05-03T02:57:53;4.83;;;2.70;;
14892;SDS011;7538;53.626;9.906;2023-05-03T03:00:20;5.07;;;3.37;;
14892;SDS011;7538;53.626;9.906;2023-05-03T03:02:47;4.80;;;3.13;;
14892;SDS011;7538;53.626;9.906;2023-05-03T03:05:14;6.17;;;4.03;;
14892;SDS011;7538;53.626;9.906;2023-05-03T03:07:43;5.80;;;3.43;;
14892;SDS011;7538;53.626;9.906;2023-05-03T03:10:09;5.10;;;3.47;;
14892;SDS011;7538;53.626;9.906;2023-05-03T03:12:36;4.43;;;3.30;;
14892;SDS011;7538;53.626;9.906;2023-05-03T03:15:04;4.17;;;2.80;;
14892;SDS011;7538;53.626;9.906;2023-05-03T03:17:32;6.30;;;3.50;;
14892;SDS011;7538;53.626;9.906;2023-05-03T03:20:02;4.33;;;3.50;;
14892;SDS011;7538;53.626;9.906;2023-05-03T03:22:30;4.53;;;3.53;;
14892;SDS011;7538;53.626;9.906;2023-05-03T03:24:59;6.93;;;3.47;;
14892;SDS011;7538;53.626;9.906;2023-05-03T03:27:25;6.50;;;3.53;;
14892;SDS011;7538;53.626;9.906;2023-05-03T03:29:52;4.77;;;3.37;;
14892;SDS011;7538;53.626;9.906;2023-05-03T03:32:19;6.47;;;3.50;;
14892;SDS011;7538;53.626;9.906;2023-05-03T03:34:46;4.50;;;3.00;;
14892;SDS011;7538;53.626;9.906;2023-05-03T03:37:13;6.33;;;3.70;;
14892;SDS011;7538;53.626;9.906;2023-05-03T03:39:40;5.97;;;3.53;;
14892;SDS011;7538;53.626;9.906;2023-05-03T03:42:09;6.60;;;3.93;;
14892;SDS011;7538;53.626;9.906;2023-05-03T03:44:37;5.53;;;3.43;;
14892;SDS011;7538;53.626;9.906;2023-05-03T03:47:04;5.90;;;3.97;;
14892;SDS011;7538;53.626;9.906;2023-05-03T03:49:31;5.53;;;3.57;;
14892;SDS011;7538;53.626;9.906;2023-05-03T03:51:58;5.33;;;4.20;;
14892;SDS011;7538;53.626;9.906;2023-05-03T03:54:24;4.33;;;3.80;;
14892;SDS011;7538;53.626;9.906;2023-05-03T03:56:51;8.17;;;4.00;;
14892;SDS011;7538;53.626;9.906;2023-05-03T03:59:19;8.13;;;4.33;;
14892;SDS011;7538;53.626;9.906;2023-05-03T04:01:46;5.93;;;4.60;;
14892;SDS011;7538;53.626;9.906;2023-05-03T04:04:13;5.57;;;3.50;;
14892;SDS011;7538;53.626;9.906;2023-05-03T04:06:40;4.90;;;3.40;;
14892;SDS011;7538;53.626;9.906;2023-05-03T04:09:07;7.87;;;4.03;;
14892;SDS011;7538;53.626;9.906;2023-05-03T04:11:34;5.83;;;4.10;;
14892;SDS011;7538;53.626;9.906;2023-05-03T04:14:02;5.07;;;3.87;;
14892;SDS011;7538;53.626;9.906;2023-05-03T04:16:30;6.03;;;3.93;;
14892;SDS011;7538;53.626;9.906;2023-05-03T04:18:57;4.73;;;3.53;;
14892;SDS011;7538;53.626;9.906;2023-05-03T04:21:24;5.80;;;3.77;;
14892;SDS011;7538;53.626;9.906;2023-05-03T04:23:52;4.83;;;3.57;;
14892;SDS011;7538;53.626;9.906;2023-05-03T04:26:19;4.50;;;3.53;;
14892;SDS011;7538;53.626;9.906;2023-05-03T04:28:46;8.07;;;4.00;;
14892;SDS011;7538;53.626;9.906;2023-05-03T04:31:15;6.13;;;3.97;;
14892;SDS011;7538;53.626;9.906;2023-05-03T04:33:44;7.00;;;4.07;;
14892;SDS011;7538;53.626;9.906;2023-05-03T04:36:11;5.13;;;4.10;;
14892;SDS011;7538;53.626;9.906;2023-05-03T04:38:40;5.23;;;3.90;;
14892;SDS011;7538;53.626;9.906;2023-05-03T04:41:07;6.63;;;4.17;;
14892;SDS011;7538;53.626;9.906;2023-05-03T04:43:33;5.53;;;3.80;;
14892;SDS011;7538;53.626;9.906;2023-05-03T04:46:00;6.57;;;3.60;;
14892;SDS011;7538;53.626;9.906;2023-05-03T04:48:28;4.10;;;3.43;;
14892;SDS011;7538;53.626;9.906;2023-05-03T04:50:56;4.57;;;3.57;;
14892;SDS011;7538;53.626;9.906;2023-05-03T04:53:23;5.47;;;3.63;;
14892;SDS011;7538;53.626;9.906;2023-05-03T04:55:50;6.93;;;3.67;;
14892;SDS011;7538;53.626;9.906;2023-05-03T04:58:16;3.77;;;3.27;;
14892;SDS011;7538;53.626;9.906;2023-05-03T05:00:44;5.73;;;3.90;;
14892;SDS011;7538;53.626;9.906;2023-05-03T05:03:11;5.37;;;3.33;;
14892;SDS011;7538;53.626;9.906;2023-05-03T05:05:37;4.40;;;3.47;;
14892;SDS011;7538;53.626;9.906;2023-05-03T05:08:06;5.53;;;3.50;;
14892;SDS011;7538;53.626;9.906;2023-05-03T05:10:35;4.63;;;3.80;;
14892;SDS011;7538;53.626;9.906;2023-05-03T05:13:02;5.23;;;3.30;;
14892;SDS011;7538;53.626;9.906;2023-05-03T05:15:29;5.13;;;3.63;;
14892;SDS011;7538;53.626;9.906;2023-05-03T05:17:56;7.43;;;3.83;;
14892;SDS011;7538;53.626;9.906;2023-05-03T05:20:23;4.87;;;3.30;;
14892;SDS011;7538;53.626;9.906;2023-05-03T05:22:50;5.10;;;3.63;;
14892;SDS011;7538;53.626;9.906;2023-05-03T05:25:18;6.50;;;3.77;;
14892;SDS011;7538;53.626;9.906;2023-05-03T05:27:45;4.00;;;3.40;;
14892;SDS011;7538;53.626;9.906;2023-05-03T05:30:12;8.43;;;3.60;;
14892;SDS011;7538;53.626;9.906;2023-05-03T05:32:39;6.43;;;3.40;;
14892;SDS011;7538;53.626;9.906;2023-05-03T05:35:06;5.53;;;3.50;;
14892;SDS011;7538;53.626;9.906;2023-05-03T05:37:33;6.17;;;3.13;;
14892;SDS011;7538;53.626;9.906;2023-05-03T05:40:00;6.50;;;3.60;;
14892;SDS011;7538;53.626;9.906;2023-05-03T05:42:29;4.30;;;3.20;;
14892;SDS011;7538;53.626;9.906;2023-05-03T05:44:56;7.40;;;3.20;;
14892;SDS011;7538;53.626;9.906;2023-05-03T05:47:23;4.73;;;3.50;;
14892;SDS011;7538;53.626;9.906;2023-05-03T05:49:51;5.03;;;3.37;;
14892;SDS011;7538;53.626;9.906;2023-05-03T05:52:17;7.97;;;3.10;;
14892;SDS011;7538;53.626;9.906;2023-05-03T05:54:44;5.22;;;4.20;;
14892;SDS011;7538;53.626;9.906;2023-05-03T05:57:11;8.20;;;3.97;;
14892;SDS011;7538;53.626;9.906;2023-05-03T05:59:39;5.50;;;3.40;;
14892;SDS011;7538;53.626;9.906;2023-05-03T06:02:06;5.57;;;3.43;;
14892;SDS011;7538;53.626;9.906;2023-05-03T06:04:41;6.72;;;3.00;;
14892;SDS011;7538;53.626;9.906;2023-05-03T06:07:08;4.68;;;2.78;;
14892;SDS011;7538;53.626;9.906;2023-05-03T06:09:35;4.90;;;2.92;;
14892;SDS011;7538;53.626;9.906;2023-05-03T06:12:02;7.70;;;3.08;;
14892;SDS011;7538;53.626;9.906;2023-05-03T06:14:29;6.97;;;2.80;;
14892;SDS011;7538;53.626;9.906;2023-05-03T06:16:57;3.42;;;2.50;;
14892;SDS011;7538;53.626;9.906;2023-05-03T06:19:25;4.78;;;2.78;;
14892;SDS011;7538;53.626;9.906;2023-05-03T06:21:51;4.60;;;2.90;;
14892;SDS011;7538;53.626;9.906;2023-05-03T06:24:18;4.20;;;2.03;;
14892;SDS011;7538;53.626;9.906;2023-05-03T06:26:45;4.78;;;2.35;;
14892;SDS011;7538;53.626;9.906;2023-05-03T06:29:12;6.05;;;2.47;;
14892;SDS011;7538;53.626;9.906;2023-05-03T06:31:39;3.35;;;2.08;;
14892;SDS011;7538;53.626;9.906;2023-05-03T06:34:08;5.80;;;2.08;;
14892;SDS011;7538;53.626;9.906;2023-05-03T06:36:35;3.83;;;1.80;;
14892;SDS011;7538;53.626;9.906;2023-05-03T06:39:01;4.28;;;2.05;;
14892;SDS011;7538;53.626;9.906;2023-05-03T06:41:29;3.33;;;1.73;;
14892;SDS011;7538;53.626;9.906;2023-05-03T06:43:56;4.85;;;1.90;;
14892;SDS011;7538;53.626;9.906;2023-05-03T06:46:24;2.70;;;1.60;;
14892;SDS011;7538;53.626;9.906;2023-05-03T06:48:52;3.05;;;1.38;;
14892;SDS011;7538;53.626;9.906;2023-05-03T06:51:21;4.40;;;1.90;;
14892;SDS011;7538;53.626;9.906;2023-05-03T06:53:52;2.92;;;1.40;;
14892;SDS011;7538;53.626;9.906;2023-05-03T06:56:19;3.05;;;1.73;;
14892;SDS011;7538;53.626;9.906;2023-05-03T06:58:46;4.20;;;1.67;;
14892;SDS011;7538;53.626;9.906;2023-05-03T07:01:13;2.85;;;1.33;;
14892;SDS011;7538;53.626;9.906;2023-05-03T07:03:41;5.53;;;1.60;;
14892;SDS011;7538;53.626;9.906;2023-05-03T07:06:08;4.70;;;1.85;;
14892;SDS011;7538;53.626;9.906;2023-05-03T07:08:36;2.63;;;1.42;;
14892;SDS011;7538;53.626;9.906;2023-05-03T07:11:03;3.42;;;1.60;;
14892;SDS011;7538;53.626;9.906;2023-05-03T07:13:30;3.00;;;1.58;;
14892;SDS011;7538;53.626;9.906;2023-05-03T07:15:56;3.58;;;1.48;;
14892;SDS011;7538;53.626;9.906;2023-05-03T07:18:24;4.55;;;1.58;;
14892;SDS011;7538;53.626;9.906;2023-05-03T07:20:51;3.45;;;1.70;;
14892;SDS011;7538;53.626;9.906;2023-05-03T07:23:17;2.67;;;1.42;;
14892;SDS011;7538;53.626;9.906;2023-05-03T07:25:46;3.05;;;1.42;;
14892;SDS011;7538;53.626;9.906;2023-05-03T07:28:12;3.35;;;1.27;;
14892;SDS011;7538;53.626;9.906;2023-05-03T07:30:39;2.60;;;1.20;;
14892;SDS011;7538;53.626;9.906;2023-05-03T07:33:06;2.17;;;1.20;;
14892;SDS011;7538;53.626;9.906;2023-05-03T07:35:33;3.63;;;1.35;;
14892;SDS011;7538;53.626;9.906;2023-05-03T07:38:00;2.80;;;1.17;;
14892;SDS011;7538;53.626;9.906;2023-05-03T07:40:27;3.38;;;1.17;;
14892;SDS011;7538;53.626;9.906;2023-05-03T07:42:58;1.88;;;1.30;;
14892;SDS011;7538;53.626;9.906;2023-05-03T07:45:25;1.67;;;1.40;;
14892;SDS011;7538;53.626;9.906;2023-05-03T07:47:52;2.53;;;1.40;;
14892;SDS011;7538;53.626;9.906;2023-05-03T07:50:19;1.85;;;1.30;;
14892;SDS011;7538;53.626;9.906;2023-05-03T07:52:46;3.58;;;1.25;;
14892;SDS011;7538;53.626;9.906;2023-05-03T07:55:15;2.58;;;1.23;;
14892;SDS011;7538;53.626;9.906;2023-05-03T07:57:42;4.57;;;1.20;;
14892;SDS011;7538;53.626;9.906;2023-05-03T08:00:11;3.65;;;1.52;;
14892;SDS011;7538;53.626;9.906;2023-05-03T08:02:40;4.03;;;1.58;;
14892;SDS011;7538;53.626;9.906;2023-05-03T08:05:07;2.08;;;1.15;;
14892;SDS011;7538;53.626;9.906;2023-05-03T08:07:35;3.38;;;1.42;;
14892;SDS011;7538;53.626;9.906;2023-05-03T08:10:02;1.40;;;1.00;;
14892;SDS011;7538;53.626;9.906;2023-05-03T08:12:29;3.58;;;1.20;;
14892;SDS011;7538;53.626;9.906;2023-05-03T08:14:56;2.22;;;1.20;;
14892;SDS011;7538;53.626;9.906;2023-05-03T08:17:24;3.42;;;1.27;;
14892;SDS011;7538;53.626;9.906;2023-05-03T08:19:51;1.88;;;1.30;;
14892;SDS011;7538;53.626;9.906;2023-05-03T08:22:20;4.13;;;1.38;;
14892;SDS011;7538;53.626;9.906;2023-05-03T08:24:50;4.30;;;1.92;;
14892;SDS011;7538;53.626;9.906;2023-05-03T08:27:18;3.85;;;1.60;;
14892;SDS011;7538;53.626;9.906;2023-05-03T08:29:44;3.60;;;1.40;;
14892;SDS011;7538;53.626;9.906;2023-05-03T08:32:11;3.20;;;1.48;;
14892;SDS011;7538;53.626;9.906;2023-05-03T08:34:39;3.20;;;1.50;;
14892;SDS011;7538;53.626;9.906;2023-05-03T08:37:06;2.65;;;1.25;;
14892;SDS011;7538;53.626;9.906;2023-05-03T08:39:33;6.47;;;1.40;;
14892;SDS011;7538;53.626;9.906;2023-05-03T08:42:00;2.55;;;1.20;;
14892;SDS011;7538;53.626;9.906;2023-05-03T08:44:32;1.55;;;1.02;;
14892;SDS011;7538;53.626;9.906;2023-05-03T08:47:03;2.67;;;1.20;;
14892;SDS011;7538;53.626;9.906;2023-05-03T08:49:31;1.80;;;1.05;;
14892;SDS011;7538;53.626;9.906;2023-05-03T08:52:00;2.38;;;1.10;;
14892;SDS011;7538;53.626;9.906;2023-05-03T08:54:28;2.30;;;1.10;;
14892;SDS011;7538;53.626;9.906;2023-05-03T08:56:55;2.97;;;1.27;;
14892;SDS011;7538;53.626;9.906;2023-05-03T08:59:21;2.40;;;1.20;;
14892;SDS011;7538;53.626;9.906;2023-05-03T09:01:50;2.17;;;1.40;;
14892;SDS011;7538;53.626;9.906;2023-05-03T09:04:17;2.38;;;1.20;;
14892;SDS011;7538;53.626;9.906;2023-05-03T09:06:43;2.40;;;1.05;;
14892;SDS011;7538;53.626;9.906;2023-05-03T09:09:12;1.20;;;1.10;;
14892;SDS011;7538;53.626;9.906;2023-05-03T09:11:41;3.35;;;1.40;;
14892;SDS011;7538;53.626;9.906;2023-05-03T09:14:08;2.33;;;1.10;;
14892;SDS011;7538;53.626;9.906;2023-05-03T09:16:36;1.50;;;1.15;;
14892;SDS011;7538;53.626;9.906;2023-05-03T09:19:03;3.30;;;1.42;;
14892;SDS011;7538;53.626;9.906;2023-05-03T09:21:33;1.67;;;1.30;;
14892;SDS011;7538;53.626;9.906;2023-05-03T09:24:01;2.05;;;1.27;;
14892;SDS011;7538;53.626;9.906;2023-05-03T09:26:30;3.40;;;1.42;;
14892;SDS011;7538;53.626;9.906;2023-05-03T09:28:59;2.00;;;1.25;;
14892;SDS011;7538;53.626;9.906;2023-05-03T09:31:28;3.03;;;1.10;;
14892;SDS011;7538;53.626;9.906;2023-05-03T09:33:55;3.22;;;1.20;;
14892;SDS011;7538;53.626;9.906;2023-05-03T09:36:23;2.40;;;1.35;;
14892;SDS011;7538;53.626;9.906;2023-05-03T09:38:51;2.92;;;1.35;;
14892;SDS011;7538;53.626;9.906;2023-05-03T09:41:26;1.92;;;1.00;;
14892;SDS011;7538;53.626;9.906;2023-05-03T09:43:55;4.25;;;1.13;;
14892;SDS011;7538;53.626;9.906;2023-05-03T09:46:26;3.00;;;1.35;;
14892;SDS011;7538;53.626;9.906;2023-05-03T09:48:54;2.45;;;1.30;;
14892;SDS011;7538;53.626;9.906;2023-05-03T09:51:22;2.15;;;1.17;;
14892;SDS011;7538;53.626;9.906;2023-05-03T09:53:49;2.55;;;1.50;;
14892;SDS011;7538;53.626;9.906;2023-05-03T09:56:17;2.13;;;1.10;;
14892;SDS011;7538;53.626;9.906;2023-05-03T09:58:50;1.50;;;1.05;;
14892;SDS011;7538;53.626;9.906;2023-05-03T10:01:19;3.88;;;1.27;;
14892;SDS011;7538;53.626;9.906;2023-05-03T10:03:48;1.23;;;1.05;;
14892;SDS011;7538;53.626;9.906;2023-05-03T10:06:21;1.60;;;1.13;;
14892;SDS011;7538;53.626;9.906;2023-05-03T10:08:52;2.17;;;1.13;;
14892;SDS011;7538;53.626;9.906;2023-05-03T10:11:23;2.45;;;1.08;;
14892;SDS011;7538;53.626;9.906;2023-05-03T10:13:52;2.85;;;1.05;;
14892;SDS011;7538;53.626;9.906;2023-05-03T10:16:22;2.75;;;1.20;;
14892;SDS011;7538;53.626;9.906;2023-05-03T10:18:53;2.58;;;1.48;;
14892;SDS011;7538;53.626;9.906;2023-05-03T10:21:28;1.38;;;1.10;;
14892;SDS011;7538;53.626;9.906;2023-05-03T10:24:09;3.80;;;1.55;;
14892;SDS011;7538;53.626;9.906;2023-05-03T10:26:39;2.38;;;1.35;;
14892;SDS011;7538;53.626;9.906;2023-05-03T10:35:00;2.20;;;1.30;;
14892;SDS011;7538;53.626;9.906;2023-05-03T10:37:29;2.05;;;1.40;;
14892;SDS011;7538;53.626;9.906;2023-05-03T10:40:03;2.80;;;1.40;;
14892;SDS011;7538;53.626;9.906;2023-05-03T10:42:31;3.92;;;1.30;;
14892;SDS011;7538;53.626;9.906;2023-05-03T10:44:59;3.80;;;1.33;;
14892;SDS011;7538;53.626;9.906;2023-05-03T10:47:27;2.55;;;1.30;;
14892;SDS011;7538;53.626;9.906;2023-05-03T10:52:51;1.40;;;1.10;;
14892;SDS011;7538;53.626;9.906;2023-05-03T10:55:18;3.15;;;1.48;;
14892;SDS011;7538;53.626;9.906;2023-05-03T10:57:49;1.60;;;1.20;;
14892;SDS011;7538;53.626;9.906;2023-05-03T11:00:22;2.00;;;1.30;;
14892;SDS011;7538;53.626;9.906;2023-05-03T11:03:18;3.97;;;1.38;;
14892;SDS011;7538;53.626;9.906;2023-05-03T11:06:00;2.28;;;1.20;;
14892;SDS011;7538;53.626;9.906;2023-05-03T11:08:28;3.58;;;1.38;;
14892;SDS011;7538;53.626;9.906;2023-05-03T11:11:01;3.85;;;1.50;;
14892;SDS011;7538;53.626;9.906;2023-05-03T11:13:31;4.53;;;1.85;;
14892;SDS011;7538;53.626;9.906;2023-05-03T11:15:58;2.97;;;1.52;;
14892;SDS011;7538;53.626;9.906;2023-05-03T11:18:25;3.08;;;1.35;;
14892;SDS011;7538;53.626;9.906;2023-05-03T11:20:52;1.90;;;1.40;;
14892;SDS011;7538;53.626;9.906;2023-05-03T11:23:24;3.15;;;1.42;;
14892;SDS011;7538;53.626;9.906;2023-05-03T11:25:52;2.70;;;1.55;;
14892;SDS011;7538;53.626;9.906;2023-05-03T11:28:20;2.95;;;1.77;;
14892;SDS011;7538;53.626;9.906;2023-05-03T11:30:47;1.60;;;1.50;;
14892;SDS011;7538;53.626;9.906;2023-05-03T11:33:14;3.28;;;1.70;;
14892;SDS011;7538;53.626;9.906;2023-05-03T11:35:41;1.98;;;1.45;;
14892;SDS011;7538;53.626;9.906;2023-05-03T11:38:08;4.10;;;1.27;;
14892;SDS011;7538;53.626;9.906;2023-05-03T11:40:36;5.10;;;1.73;;
14892;SDS011;7538;53.626;9.906;2023-05-03T11:43:04;3.22;;;1.50;;
14892;SDS011;7538;53.626;9.906;2023-05-03T11:45:38;2.58;;;1.50;;
14892;SDS011;7538;53.626;9.906;2023-05-03T11:48:08;3.53;;;1.60;;
14892;SDS011;7538;53.626;9.906;2023-05-03T11:50:45;4.25;;;1.80;;
14892;SDS011;7538;53.626;9.906;2023-05-03T11:53:15;3.55;;;1.77;;
14892;SDS011;7538;53.626;9.906;2023-05-03T11:55:45;2.97;;;1.63;;
14892;SDS011;7538;53.626;9.906;2023-05-03T11:58:14;3.40;;;1.60;;
14892;SDS011;7538;53.626;9.906;2023-05-03T12:00:42;3.00;;;1.45;;
14892;SDS011;7538;53.626;9.906;2023-05-03T12:03:10;3.85;;;1.67;;
14892;SDS011;7538;53.626;9.906;2023-05-03T12:05:42;4.32;;;1.83;;
14892;SDS011;7538;53.626;9.906;2023-05-03T12:08:09;4.55;;;1.60;;
14892;SDS011;7538;53.626;9.906;2023-05-03T12:10:36;3.88;;;1.52;;
14892;SDS011;7538;53.626;9.906;2023-05-03T12:13:04;2.20;;;1.25;;
14892;SDS011;7538;53.626;9.906;2023-05-03T12:15:32;2.50;;;1.90;;
14892;SDS011;7538;53.626;9.906;2023-05-03T12:18:02;4.30;;;1.80;;
14892;SDS011;7538;53.626;9.906;2023-05-03T12:20:30;2.63;;;1.98;;
14892;SDS011;7538;53.626;9.906;2023-05-03T12:22:59;4.40;;;1.98;;
14892;SDS011;7538;53.626;9.906;2023-05-03T12:25:27;2.22;;;2.00;;
14892;SDS011;7538;53.626;9.906;2023-05-03T12:27:56;3.53;;;1.75;;
14892;SDS011;7538;53.626;9.906;2023-05-03T12:30:26;4.10;;;1.75;;
14892;SDS011;7538;53.626;9.906;2023-05-03T12:32:53;3.78;;;2.10;;
14892;SDS011;7538;53.626;9.906;2023-05-03T12:35:20;3.17;;;1.92;;
14892;SDS011;7538;53.626;9.906;2023-05-03T12:37:48;2.78;;;1.88;;
14892;SDS011;7538;53.626;9.906;2023-05-03T12:40:16;3.97;;;1.85;;
14892;SDS011;7538;53.626;9.906;2023-05-03T12:42:44;3.13;;;1.95;;
14892;SDS011;7538;53.626;9.906;2023-05-03T12:45:11;3.00;;;1.80;;
14892;SDS011;7538;53.626;9.906;2023-05-03T12:47:39;3.63;;;2.03;;
14892;SDS011;7538;53.626;9.906;2023-05-03T12:50:06;2.65;;;1.83;;
14892;SDS011;7538;53.626;9.906;2023-05-03T12:52:35;2.20;;;2.00;;
14892;SDS011;7538;53.626;9.906;2023-05-03T12:55:02;5.75;;;2.10;;
14892;SDS011;7538;53.626;9.906;2023-05-03T12:57:30;2.50;;;1.65;;
14892;SDS011;7538;53.626;9.906;2023-05-03T12:59:57;2.50;;;1.50;;
14892;SDS011;7538;53.626;9.906;2023-05-03T13:02:24;3.03;;;1.80;;
14892;SDS011;7538;53.626;9.906;2023-05-03T13:04:52;4.38;;;2.08;;
14892;SDS011;7538;53.626;9.906;2023-05-03T13:07:20;2.15;;;1.90;;
14892;SDS011;7538;53.626;9.906;2023-05-03T13:09:48;3.25;;;2.20;;
14892;SDS011;7538;53.626;9.906;2023-05-03T13:12:16;3.15;;;2.08;;
14892;SDS011;7538;53.626;9.906;2023-05-03T13:14:44;3.33;;;1.83;;
14892;SDS011;7538;53.626;9.906;2023-05-03T13:17:11;3.50;;;2.20;;
14892;SDS011;7538;53.626;9.906;2023-05-03T13:19:39;3.80;;;2.35;;
14892;SDS011;7538;53.626;9.906;2023-05-03T13:22:08;4.30;;;2.30;;
14892;SDS011;7538;53.626;9.906;2023-05-03T13:24:36;2.83;;;1.95;;
14892;SDS011;7538;53.626;9.906;2023-05-03T13:27:03;4.57;;;1.98;;
14892;SDS011;7538;53.626;9.906;2023-05-03T13:29:30;5.15;;;2.58;;
14892;SDS011;7538;53.626;9.906;2023-05-03T13:31:57;3.15;;;2.10;;
14892;SDS011;7538;53.626;9.906;2023-05-03T13:34:24;4.88;;;2.35;;
14892;SDS011;7538;53.626;9.906;2023-05-03T13:36:51;6.18;;;2.30;;
14892;SDS011;7538;53.626;9.906;2023-05-03T13:39:19;2.60;;;2.30;;
14892;SDS011;7538;53.626;9.906;2023-05-03T13:41:46;3.55;;;2.25;;
14892;SDS011;7538;53.626;9.906;2023-05-03T13:44:12;2.60;;;2.40;;
14892;SDS011;7538;53.626;9.906;2023-05-03T13:46:39;2.45;;;2.25;;
14892;SDS011;7538;53.626;9.906;2023-05-03T13:49:07;4.20;;;2.63;;
14892;SDS011;7538;53.626;9.906;2023-05-03T13:51:35;3.35;;;2.45;;
14892;SDS011;7538;53.626;9.906;2023-05-03T13:54:04;5.28;;;2.90;;
14892;SDS011;7538;53.626;9.906;2023-05-03T13:56:33;4.50;;;2.50;;
14892;SDS011;7538;53.626;9.906;2023-05-03T13:59:00;3.45;;;2.75;;
14892;SDS011;7538;53.626;9.906;2023-05-03T14:01:27;3.08;;;2.78;;
14892;SDS011;7538;53.626;9.906;2023-05-03T14:03:54;3.17;;;2.00;;
14892;SDS011;7538;53.626;9.906;2023-05-03T14:06:21;2.80;;;2.60;;
14892;SDS011;7538;53.626;9.906;2023-05-03T14:08:48;5.80;;;2.72;;
14892;SDS011;7538;53.626;9.906;2023-05-03T14:11:15;4.20;;;2.80;;
14892;SDS011;7538;53.626;9.906;2023-05-03T14:13:48;4.25;;;2.67;;
14892;SDS011;7538;53.626;9.906;2023-05-03T14:16:16;4.40;;;2.55;;
14892;SDS011;7538;53.626;9.906;2023-05-03T14:18:44;3.70;;;2.63;;
14892;SDS011;7538;53.626;9.906;2023-05-03T14:21:12;2.80;;;2.60;;
14892;SDS011;7538;53.626;9.906;2023-05-03T14:23:39;2.75;;;2.53;;
14892;SDS011;7538;53.626;9.906;2023-05-03T14:26:05;3.03;;;2.70;;
14892;SDS011;7538;53.626;9.906;2023-05-03T14:28:32;4.63;;;2.50;;
14892;SDS011;7538;53.626;9.906;2023-05-03T14:31:01;3.65;;;2.97;;
14892;SDS011;7538;53.626;9.906;2023-05-03T14:33:28;3.65;;;3.15;;
14892;SDS011;7538;53.626;9.906;2023-05-03T14:35:55;3.33;;;2.80;;
14892;SDS011;7538;53.626;9.906;2023-05-03T14:38:22;3.42;;;2.70;;
14892;SDS011;7538;53.626;9.906;2023-05-03T14:40:50;7.93;;;2.50;;
14892;SDS011;7538;53.626;9.906;2023-05-03T14:43:18;4.80;;;3.03;;
14892;SDS011;7538;53.626;9.906;2023-05-03T14:45:45;4.00;;;2.53;;
14892;SDS011;7538;53.626;9.906;2023-05-03T14:48:13;5.85;;;3.10;;
14892;SDS011;7538;53.626;9.906;2023-05-03T14:50:40;4.18;;;2.50;;
14892;SDS011;7538;53.626;9.906;2023-05-03T14:53:07;3.65;;;2.70;;
14892;SDS011;7538;53.626;9.906;2023-05-03T14:55:34;4.25;;;2.70;;
14892;SDS011;7538;53.626;9.906;2023-05-03T14:58:01;4.35;;;2.10;;
14892;SDS011;7538;53.626;9.906;2023-05-03T15:00:28;3.13;;;2.58;;
14892;SDS011;7538;53.626;9.906;2023-05-03T15:02:54;3.65;;;2.30;;
14892;SDS011;7538;53.626;9.906;2023-05-03T15:05:23;2.65;;;2.10;;
14892;SDS011;7538;53.626;9.906;2023-05-03T15:07:49;3.85;;;2.85;;
14892;SDS011;7538;53.626;9.906;2023-05-03T15:10:17;3.50;;;2.60;;
14892;SDS011;7538;53.626;9.906;2023-05-03T15:12:44;3.13;;;2.53;;
14892;SDS011;7538;53.626;9.906;2023-05-03T15:15:11;3.75;;;2.70;;